Time,TemperatureF,DewpointF,PressureIn,WindDirection,WindDirectionDegrees,WindSpeedMPH,WindSpeedGustMPH,Humidity,HourlyPrecipIn,Conditions,Clouds,dailyrainin,SoftwareType,DateUTC
2013-04-18 00:05:00,44.9,31.0,30.32,WNW,286,0.0,-999.0,58,-99.99,,,0.00,weatherlink.com 1.10,2013-04-18 04:05:00,
2013-04-18 00:20:00,44.4,31.0,30.34,WNW,286,0.0,-999.0,59,-99.99,,,0.00,weatherlink.com 1.10,2013-04-18 04:20:00,
2013-04-18 00:35:00,44.3,31.0,30.34,WNW,286,0.0,-999.0,61,-99.99,,,0.00,weatherlink.com 1.10,2013-04-18 04:35:00,
2013-04-18 00:50:00,43.6,31.0,30.35,WNW,286,0.0,-999.0,61,-99.99,,,0.00,weatherlink.com 1.10,2013-04-18 04:50:00,
2013-04-18 01:05:00,42.8,31.0,30.35,WNW,286,0.0,-999.0,64,-99.99,,,0.00,weatherlink.com 1.10,2013-04-18 05:05:00,
2013-04-18 01:20:00,42.1,31.0,30.35,WNW,286,0.0,-999.0,65,-99.99,,,0.00,weatherlink.com 1.10,2013-04-18 05:20:00,
2013-04-18 01:35:00,41.6,32.0,30.35,WNW,286,0.0,-999.0,68,-99.99,,,0.00,weatherlink.com 1.10,2013-04-18 05:35:00,
2013-04-18 01:50:00,40.9,31.0,30.35,WNW,286,0.0,-999.0,69,-99.99,,,0.00,weatherlink.com 1.10,2013-04-18 05:50:00,
2013-04-18 02:05:00,40.2,32.0,30.34,WNW,286,0.0,-999.0,72,-99.99,,,0.00,weatherlink.com 1.10,2013-04-18 06:05:00,
2013-04-18 02:20:00,39.6,31.0,30.34,WNW,286,0.0,-999.0,72,-99.99,,,0.00,weatherlink.com 1.10,2013-04-18 06:20:00,
2013-04-18 02:35:00,39.2,32.0,30.34,WNW,286,0.0,-999.0,74,-99.99,,,0.00,weatherlink.com 1.10,2013-04-18 06:35:00,
2013-04-18 02:50:00,38.8,32.0,30.34,WNW,286,0.0,-999.0,76,-99.99,,,0.00,weatherlink.com 1.10,2013-04-18 06:50:00,
2013-04-18 03:05:00,38.5,31.0,30.35,WNW,286,0.0,-999.0,75,-99.99,,,0.00,weatherlink.com 1.10,2013-04-18 07:05:00,
2013-04-18 03:20:00,38.1,31.0,30.36,WNW,286,0.0,-999.0,76,-99.99,,,0.00,weatherlink.com 1.10,2013-04-18 07:20:00,
2013-04-18 03:35:00,37.9,31.0,30.37,WNW,286,0.0,-999.0,76,-99.99,,,0.00,weatherlink.com 1.10,2013-04-18 07:35:00,
2013-04-18 03:50:00,37.4,31.0,30.37,WNW,286,0.0,-999.0,77,-99.99,,,0.00,weatherlink.com 1.10,2013-04-18 07:50:00,
2013-04-18 04:05:00,37.1,31.0,30.38,WNW,286,0.0,-999.0,79,-99.99,,,0.00,weatherlink.com 1.10,2013-04-18 08:05:00,
2013-04-18 04:21:00,37.0,31.0,30.38,WNW,286,0.0,-999.0,79,-99.99,,,0.00,weatherlink.com 1.10,2013-04-18 08:21:00,
2013-04-18 04:36:00,36.6,31.0,30.38,WNW,286,0.0,-999.0,80,-99.99,,,0.00,weatherlink.com 1.10,2013-04-18 08:36:00,
2013-04-18 04:51:00,36.5,31.0,30.39,WNW,286,0.0,-999.0,81,-99.99,,,0.00,weatherlink.com 1.10,2013-04-18 08:51:00,
2013-04-18 05:06:00,36.2,31.0,30.39,WNW,286,0.0,-999.0,81,-99.99,,,0.00,weatherlink.com 1.10,2013-04-18 09:06:00,
2013-04-18 05:21:00,35.9,31.0,30.39,WNW,286,0.0,-999.0,83,-99.99,,,0.00,weatherlink.com 1.10,2013-04-18 09:21:00,
2013-04-18 05:36:00,35.7,31.0,30.39,WNW,286,0.0,-999.0,84,-99.99,,,0.00,weatherlink.com 1.10,2013-04-18 09:36:00,
2013-04-18 05:51:00,35.4,31.0,30.39,WNW,286,0.0,-999.0,84,-99.99,,,0.00,weatherlink.com 1.10,2013-04-18 09:51:00,
2013-04-18 06:06:00,35.2,31.0,30.39,WNW,286,0.0,-999.0,84,-99.99,,,0.00,weatherlink.com 1.10,2013-04-18 10:06:00,
2013-04-18 06:51:00,35.8,31.0,30.39,WNW,286,0.0,-999.0,84,-99.99,,,0.00,weatherlink.com 1.10,2013-04-18 10:51:00,
2013-04-18 07:06:00,36.8,32.0,30.40,WNW,286,0.0,-999.0,84,-99.99,,,0.00,weatherlink.com 1.10,2013-04-18 11:06:00,
2013-04-18 07:21:00,38.6,34.0,30.40,WNW,286,0.0,-999.0,84,-99.99,,,0.00,weatherlink.com 1.10,2013-04-18 11:21:00,
2013-04-18 07:36:00,41.1,35.0,30.41,WNW,286,0.0,-999.0,78,-99.99,,,0.00,weatherlink.com 1.10,2013-04-18 11:36:00,
2013-04-18 07:51:00,43.5,34.0,30.41,WNW,286,0.0,-999.0,70,-99.99,,,0.00,weatherlink.com 1.10,2013-04-18 11:51:00,
2013-04-18 08:06:00,45.6,34.0,30.41,NNE,20,1.0,-999.0,64,-99.99,,,0.00,weatherlink.com 1.10,2013-04-18 12:06:00,
2013-04-18 08:21:00,47.1,34.0,30.42,NNW,348,0.0,-999.0,61,-99.99,,,0.00,weatherlink.com 1.10,2013-04-18 12:21:00,
2013-04-18 08:36:00,48.4,33.0,30.41,SE,143,0.0,-999.0,55,-99.99,,,0.00,weatherlink.com 1.10,2013-04-18 12:36:00,
2013-04-18 08:51:00,50.2,33.0,30.40,SSW,211,0.0,-999.0,52,-99.99,,,0.00,weatherlink.com 1.10,2013-04-18 12:51:00,
2013-04-18 09:06:00,52.3,34.0,30.39,South,186,2.0,-999.0,51,-99.99,,,0.00,weatherlink.com 1.10,2013-04-18 13:06:00,
2013-04-18 09:22:00,54.3,31.0,30.39,SE,144,0.0,-999.0,42,-99.99,,,0.00,weatherlink.com 1.10,2013-04-18 13:22:00,
2013-04-18 09:37:00,55.5,31.0,30.39,ENE,64,2.0,-999.0,39,-99.99,,,0.00,weatherlink.com 1.10,2013-04-18 13:37:00,
2013-04-18 09:52:00,55.0,31.0,30.40,ESE,117,1.0,-999.0,40,-99.99,,,0.00,weatherlink.com 1.10,2013-04-18 13:52:00,
2013-04-18 10:07:00,56.5,32.0,30.40,NNE,24,3.0,-999.0,39,-99.99,,,0.00,weatherlink.com 1.10,2013-04-18 14:07:00,
2013-04-18 10:22:00,57.3,34.0,30.40,WNW,298,0.0,-999.0,41,-99.99,,,0.00,weatherlink.com 1.10,2013-04-18 14:22:00,
2013-04-18 10:37:00,56.8,32.0,30.39,NE,37,0.0,-999.0,39,-99.99,,,0.00,weatherlink.com 1.10,2013-04-18 14:37:00,
2013-04-18 10:52:00,58.4,34.0,30.38,SE,130,2.0,-999.0,40,-99.99,,,0.00,weatherlink.com 1.10,2013-04-18 14:52:00,
2013-04-18 11:07:00,59.1,33.0,30.38,SSE,157,1.0,-999.0,37,-99.99,,,0.00,weatherlink.com 1.10,2013-04-18 15:07:00,
2013-04-18 11:22:00,59.3,35.0,30.37,East,86,0.0,-999.0,40,-99.99,,,0.00,weatherlink.com 1.10,2013-04-18 15:22:00,
2013-04-18 11:37:00,60.4,36.0,30.37,SSE,156,0.0,-999.0,40,-99.99,,,0.00,weatherlink.com 1.10,2013-04-18 15:37:00,
2013-04-18 11:53:00,61.2,36.0,30.36,SSW,213,1.0,-999.0,39,-99.99,,,0.00,weatherlink.com 1.10,2013-04-18 15:53:00,
2013-04-18 12:08:00,61.3,35.0,30.35,ESE,116,2.0,-999.0,37,-99.99,,,0.00,weatherlink.com 1.10,2013-04-18 16:08:00,
2013-04-18 12:23:00,62.2,35.0,30.35,SSW,200,2.0,-999.0,37,-99.99,,,0.00,weatherlink.com 1.10,2013-04-18 16:23:00,
2013-04-18 12:38:00,61.4,37.0,30.33,South,176,1.0,-999.0,40,-99.99,,,0.00,weatherlink.com 1.10,2013-04-18 16:38:00,
2013-04-18 12:53:00,62.2,35.0,30.32,SSE,155,2.0,-999.0,37,-99.99,,,0.00,weatherlink.com 1.10,2013-04-18 16:53:00,
2013-04-18 13:08:00,62.2,37.0,30.31,SE,134,0.0,-999.0,40,-99.99,,,0.00,weatherlink.com 1.10,2013-04-18 17:08:00,
2013-04-18 13:23:00,62.5,37.0,30.30,SE,146,4.0,-999.0,39,-99.99,,,0.00,weatherlink.com 1.10,2013-04-18 17:23:00,
2013-04-18 13:38:00,63.9,38.0,30.30,South,189,1.0,-999.0,39,-99.99,,,0.00,weatherlink.com 1.10,2013-04-18 17:38:00,
2013-04-18 13:53:00,64.4,39.0,30.29,SW,235,2.0,-999.0,40,-99.99,,,0.00,weatherlink.com 1.10,2013-04-18 17:53:00,
2013-04-18 14:08:00,64.8,38.0,30.28,ENE,78,1.0,-999.0,37,-99.99,,,0.00,weatherlink.com 1.10,2013-04-18 18:08:00,
2013-04-18 14:23:00,64.1,37.0,30.29,ESE,119,0.0,-999.0,37,-99.99,,,0.00,weatherlink.com 1.10,2013-04-18 18:23:00,
2013-04-18 14:38:00,63.2,37.0,30.27,SE,131,0.0,-999.0,38,-99.99,,,0.00,weatherlink.com 1.10,2013-04-18 18:38:00,
2013-04-18 14:53:00,64.0,38.0,30.27,SE,129,0.0,-999.0,38,-99.99,,,0.00,weatherlink.com 1.10,2013-04-18 18:53:00,
2013-04-18 15:08:00,62.4,35.0,30.26,SW,215,4.0,-999.0,36,-99.99,,,0.00,weatherlink.com 1.10,2013-04-18 19:08:00,
2013-04-18 15:23:00,62.6,34.0,30.26,SSW,192,2.0,-999.0,35,-99.99,,,0.00,weatherlink.com 1.10,2013-04-18 19:23:00,
2013-04-18 15:38:00,62.4,34.0,30.25,SSW,209,7.0,-999.0,35,-99.99,,,0.00,weatherlink.com 1.10,2013-04-18 19:38:00,
2013-04-18 15:53:00,61.9,34.0,30.25,SSW,192,4.0,-999.0,35,-99.99,,,0.00,weatherlink.com 1.10,2013-04-18 19:53:00,
2013-04-18 16:08:00,61.8,33.0,30.23,SSE,152,0.0,-999.0,34,-99.99,,,0.00,weatherlink.com 1.10,2013-04-18 20:08:00,
2013-04-18 16:23:00,61.6,33.0,30.23,SE,142,5.0,-999.0,34,-99.99,,,0.00,weatherlink.com 1.10,2013-04-18 20:23:00,
2013-04-18 16:38:00,60.5,33.0,30.23,South,175,5.0,-999.0,35,-99.99,,,0.00,weatherlink.com 1.10,2013-04-18 20:38:00,
2013-04-18 16:53:00,59.5,32.0,30.23,South,184,2.0,-999.0,36,-99.99,,,0.00,weatherlink.com 1.10,2013-04-18 20:53:00,
2013-04-18 17:08:00,59.2,32.0,30.23,SSE,157,1.0,-999.0,36,-99.99,,,0.00,weatherlink.com 1.10,2013-04-18 21:08:00,
2013-04-18 17:23:00,58.9,32.0,30.23,South,185,5.0,-999.0,37,-99.99,,,0.00,weatherlink.com 1.10,2013-04-18 21:23:00,
2013-04-18 17:38:00,58.2,32.0,30.23,SW,214,5.0,-999.0,37,-99.99,,,0.00,weatherlink.com 1.10,2013-04-18 21:38:00,
2013-04-18 17:53:00,57.5,30.0,30.23,SSE,166,2.0,-999.0,35,-99.99,,,0.00,weatherlink.com 1.10,2013-04-18 21:53:00,
2013-04-18 18:08:00,57.1,30.0,30.23,South,187,3.0,-999.0,36,-99.99,,,0.00,weatherlink.com 1.10,2013-04-18 22:08:00,
2013-04-18 18:23:00,56.7,30.0,30.22,SSE,150,0.0,-999.0,37,-99.99,,,0.00,weatherlink.com 1.10,2013-04-18 22:23:00,
2013-04-18 18:38:00,56.4,30.0,30.21,SW,219,2.0,-999.0,36,-99.99,,,0.00,weatherlink.com 1.10,2013-04-18 22:38:00,
2013-04-18 18:53:00,56.0,30.0,30.21,South,180,2.0,-999.0,37,-99.99,,,0.00,weatherlink.com 1.10,2013-04-18 22:53:00,
2013-04-18 19:08:00,55.5,29.0,30.20,SSW,198,5.0,-999.0,36,-99.99,,,0.00,weatherlink.com 1.10,2013-04-18 23:08:00,
2013-04-18 19:23:00,55.1,28.0,30.20,SSE,155,1.0,-999.0,36,-99.99,,,0.00,weatherlink.com 1.10,2013-04-18 23:23:00,
2013-04-18 19:38:00,54.9,30.0,30.19,SSW,209,5.0,-999.0,38,-99.99,,,0.00,weatherlink.com 1.10,2013-04-18 23:38:00,
2013-04-18 19:53:00,54.8,31.0,30.18,SSW,206,8.0,-999.0,40,-99.99,,,0.00,weatherlink.com 1.10,2013-04-18 23:53:00,
2013-04-18 20:08:00,54.6,33.0,30.18,SSW,205,4.0,-999.0,44,-99.99,,,0.00,weatherlink.com 1.10,2013-04-19 00:08:00,
2013-04-18 20:24:00,54.2,36.0,30.18,SSE,159,6.0,-999.0,51,-99.99,,,0.00,weatherlink.com 1.10,2013-04-19 00:24:00,
2013-04-18 20:39:00,53.7,38.0,30.18,SSW,197,1.0,-999.0,56,-99.99,,,0.00,weatherlink.com 1.10,2013-04-19 00:39:00,
2013-04-18 20:54:00,53.1,39.0,30.18,SSE,161,1.0,-999.0,60,-99.99,,,0.00,weatherlink.com 1.10,2013-04-19 00:54:00,
2013-04-18 21:09:00,52.8,41.0,30.17,South,190,3.0,-999.0,64,-99.99,,,0.00,weatherlink.com 1.10,2013-04-19 01:09:00,
2013-04-18 21:24:00,52.4,42.0,30.17,South,182,1.0,-999.0,67,-99.99,,,0.00,weatherlink.com 1.10,2013-04-19 01:24:00,
2013-04-18 21:39:00,51.9,42.0,30.17,SSE,155,4.0,-999.0,70,-99.99,,,0.00,weatherlink.com 1.10,2013-04-19 01:39:00,
2013-04-18 21:54:00,51.5,42.0,30.17,SE,137,4.0,-999.0,71,-99.99,,,0.00,weatherlink.com 1.10,2013-04-19 01:54:00,
2013-04-18 22:09:00,51.2,43.0,30.16,SSW,201,0.0,-999.0,73,-99.99,,,0.00,weatherlink.com 1.10,2013-04-19 02:09:00,
2013-04-18 22:24:00,51.0,43.0,30.15,South,182,0.0,-999.0,74,-99.99,,,0.00,weatherlink.com 1.10,2013-04-19 02:24:00,
2013-04-18 22:39:00,51.3,43.0,30.14,SSW,207,1.0,-999.0,74,-99.99,,,0.00,weatherlink.com 1.10,2013-04-19 02:39:00,
2013-04-18 22:54:00,51.4,43.0,30.13,SSW,195,4.0,-999.0,74,-99.99,,,0.00,weatherlink.com 1.10,2013-04-19 02:54:00,
2013-04-18 23:09:00,51.5,43.0,30.13,SW,215,4.0,-999.0,74,-99.99,,,0.00,weatherlink.com 1.10,2013-04-19 03:09:00,
2013-04-18 23:24:00,51.6,44.0,30.13,SSW,198,7.0,-999.0,74,-99.99,,,0.00,weatherlink.com 1.10,2013-04-19 03:24:00,
2013-04-18 23:39:00,51.8,44.0,30.13,SSW,209,5.0,-999.0,74,-99.99,,,0.00,weatherlink.com 1.10,2013-04-19 03:39:00,
2013-04-18 23:54:00,51.9,44.0,30.13,SW,223,0.0,-999.0,75,-99.99,,,0.00,weatherlink.com 1.10,2013-04-19 03:54:00,